Nanxiang, China
Current Conditions -  °F | °C
As of 11:00 AM on Thursday 23 Oct 2014 (Local Time) from ZSSS Reporting Station
Few Clouds Few Clouds  
Wind Chill: 72°   Ceiling: Unl
Heat Index: 72°   Visibility: 6mi
Dew Point: 54°   Wind: 7mph
Humidity: 53%   Direction: NA
Pressure: 30.18"   Gusts: NA
Location:  31.3°N, 121.28°E
Report Text: ZSSS 230300Z VRB03MPS 9999 FEW030 22/12 Q1022 NOSIG
Loading
Personal Weather Stations






























Interactive Weather Map
Tropical Storm Tracking
New forecast layout! Learn more

10-Day Weather Forecast

Advertisements
Track Severe Weather on mobile